joomla templates top joomla templates template joomla

King Air Abend

Notam

C3641/14 - CUSTOMS AVBL PPR, TEL 0049 9561 92098. 13 NOV 14:46 2014 UNTIL PERM. CREATED: 13 NOV 14:47 2014

Aerodrome Terminal Information Service (ATIS) Coburg

METAR
EDQC 242150Z AUTO 33003KT CAVOK 19/19 Q1020=

METAR und TAF der Umgebung

[Quelle: ADDS]
METAR
EDDF 242150Z 31003KT 280V340 CAVOK 21/20 Q1018 NOSIG =
EDDN 242150Z 00000KT 9999 MIFG NSC 19/18 Q1019 =
EDDE 242150Z 31001KT CAVOK 21/15 Q1019 =
TAF
EDDF 241700Z 2418/2524 33005KT 9999 FEW035 BECMG 2420/2422 VRB03KT BECMG 2507/2510 28006KT =
EDDN 241700Z 2418/2518 30004KT 9999 SCT020 TEMPO 2418/2421 SHRA SCT020CB PROB30 TEMPO 2418/2421 24015G25KT TSRA BKN020CB BECMG 2422/2424 BKN006 TEMPO 2500/2505 4000 BR BKN004 BECMG 2507/2509 BKN012 BECMG 2509/2511 SCT012 TEMPO 2510/2518 33015G25KT TSRA BKN020CB =
EDDE 241700Z 2418/2518 03006KT CAVOK BECMG 2419/2421 24004KT BECMG 2510/2512 30007KT PROB30 TEMPO 2510/2518 30015G30KT TSRA SCT025CB =
SR / SS: 03:38 / 19:10 UTC (EDQC 2016-07-25)

Verkehrslandeplatz Coburg Brandensteinsebene
Tower
Zur Brandensteinsebene
96450 Coburg

AeroClub Logo 200px

Aero Club Coburg e. V.
Postfach 11 09
96401 Coburg